createdAt,value
2022-10-28T00:00:16.150Z,4.50
2022-10-28T00:02:43.443Z,4.63
2022-10-28T00:05:10.676Z,4.45
2022-10-28T00:07:37.865Z,4.28
2022-10-28T00:10:05.215Z,5.38
2022-10-28T00:12:36.003Z,4.55
2022-10-28T00:15:03.417Z,4.63
2022-10-28T00:17:30.633Z,4.80
2022-10-28T00:19:57.821Z,5.50
2022-10-28T00:22:25.007Z,5.07
2022-10-28T00:24:52.230Z,5.05
2022-10-28T00:27:19.387Z,5.35
2022-10-28T00:29:46.560Z,5.75
2022-10-28T00:32:13.753Z,5.60
2022-10-28T00:34:41.010Z,5.38
2022-10-28T00:37:08.192Z,5.50
2022-10-28T00:39:35.415Z,5.05
2022-10-28T00:42:03.692Z,5.90
2022-10-28T00:44:40.302Z,5.95
2022-10-28T00:47:13.922Z,5.80
2022-10-28T00:49:42.048Z,5.78
2022-10-28T00:52:15.482Z,5.88
2022-10-28T00:54:43.223Z,5.60
2022-10-28T00:57:12.862Z,7.25
2022-10-28T00:59:46.500Z,6.05
2022-10-28T01:02:13.844Z,5.90
2022-10-28T01:04:41.653Z,5.75
2022-10-28T01:07:09.258Z,5.40
2022-10-28T01:09:36.433Z,5.95
2022-10-28T01:12:22.445Z,6.07
2022-10-28T01:15:00.684Z,5.88
2022-10-28T01:17:46.619Z,5.88
2022-10-28T01:20:36.135Z,5.95
2022-10-28T01:25:34.037Z,6.43
2022-10-28T01:28:13.413Z,5.85
2022-10-28T01:31:15.946Z,6.03
2022-10-28T01:33:52.338Z,6.35
2022-10-28T01:36:31.841Z,5.90
2022-10-28T01:39:08.629Z,5.22
2022-10-28T01:41:39.385Z,6.30
2022-10-28T01:44:25.187Z,6.78
2022-10-28T01:46:54.922Z,5.47
2022-10-28T01:49:42.403Z,5.78
2022-10-28T01:52:12.746Z,5.50
2022-10-28T01:54:40.592Z,5.57
2022-10-28T01:57:07.781Z,5.15
2022-10-28T01:59:35.258Z,4.88
2022-10-28T02:04:34.587Z,5.13
2022-10-28T02:07:02.090Z,5.50
2022-10-28T02:09:32.073Z,4.60
2022-10-28T02:12:02.143Z,4.32
2022-10-28T02:14:49.428Z,5.00
2022-10-28T02:17:37.039Z,5.22
2022-10-28T02:20:04.209Z,5.30
2022-10-28T02:22:33.508Z,4.82
2022-10-28T02:25:06.960Z,4.90
2022-10-28T02:27:40.370Z,4.68
2022-10-28T02:30:08.892Z,5.40
2022-10-28T02:32:40.652Z,4.60
2022-10-28T02:35:16.537Z,4.40
2022-10-28T02:37:44.758Z,4.78
2022-10-28T02:40:15.212Z,5.13
2022-10-28T02:42:45.768Z,4.45
2022-10-28T02:45:14.714Z,4.55
2022-10-28T02:47:44.653Z,5.18
2022-10-28T02:50:16.549Z,4.80
2022-10-28T02:52:45.679Z,4.93
2022-10-28T02:55:12.944Z,4.35
2022-10-28T02:57:42.853Z,4.28
2022-10-28T03:00:11.372Z,4.72
2022-10-28T03:02:38.569Z,4.63
2022-10-28T03:05:06.980Z,3.95
2022-10-28T03:07:34.179Z,4.15
2022-10-28T03:10:01.355Z,4.40
2022-10-28T03:12:28.544Z,3.75
2022-10-28T03:14:55.729Z,4.10
2022-10-28T03:17:22.926Z,4.88
2022-10-28T03:19:50.174Z,3.95
2022-10-28T03:22:17.529Z,5.10
2022-10-28T03:24:44.723Z,4.40
2022-10-28T03:27:11.891Z,4.57
2022-10-28T03:29:43.319Z,4.75
2022-10-28T03:32:13.022Z,5.22
2022-10-28T03:34:40.426Z,5.03
2022-10-28T03:37:07.584Z,4.90
2022-10-28T03:39:34.766Z,4.93
2022-10-28T03:42:02.002Z,4.85
2022-10-28T03:44:29.345Z,4.43
2022-10-28T03:46:56.549Z,5.05
2022-10-28T03:49:23.878Z,5.47
2022-10-28T03:51:51.057Z,5.20
2022-10-28T03:54:18.358Z,5.63
2022-10-28T03:56:45.565Z,4.45
2022-10-28T03:59:15.127Z,5.25
2022-10-28T04:01:45.142Z,5.90
2022-10-28T04:04:12.352Z,4.90
2022-10-28T04:06:39.595Z,4.85
2022-10-28T04:09:06.861Z,5.10
2022-10-28T04:11:34.056Z,4.97
2022-10-28T04:14:01.266Z,5.20
2022-10-28T04:16:28.504Z,5.43
2022-10-28T04:18:55.696Z,5.40
2022-10-28T04:21:22.928Z,4.38
2022-10-28T04:23:50.113Z,4.55
2022-10-28T04:26:17.305Z,4.72
2022-10-28T04:28:45.044Z,5.18
2022-10-28T04:31:12.685Z,4.38
2022-10-28T04:33:42.344Z,4.53
2022-10-28T04:36:09.691Z,4.50
2022-10-28T04:38:39.293Z,5.70
2022-10-28T04:41:06.513Z,4.93
2022-10-28T04:43:33.688Z,5.07
2022-10-28T04:46:05.951Z,5.10
2022-10-28T04:48:33.968Z,5.47
2022-10-28T04:51:01.182Z,5.30
2022-10-28T04:53:28.512Z,4.68
2022-10-28T04:55:59.089Z,5.03
2022-10-28T04:58:26.825Z,4.55
2022-10-28T05:00:53.970Z,4.88
2022-10-28T05:03:21.150Z,5.00
2022-10-28T05:05:48.799Z,4.97
2022-10-28T05:08:15.941Z,5.22
2022-10-28T05:10:43.108Z,4.28
2022-10-28T05:13:10.269Z,4.95
2022-10-28T05:15:37.533Z,4.90
2022-10-28T05:18:04.712Z,4.55
2022-10-28T05:20:31.871Z,4.88
2022-10-28T05:22:59.105Z,4.35
2022-10-28T05:25:26.293Z,4.05
2022-10-28T05:27:53.441Z,5.18
2022-10-28T05:30:20.627Z,4.55
2022-10-28T05:32:50.362Z,3.90
2022-10-28T05:35:20.145Z,4.68
2022-10-28T05:37:47.393Z,4.53
2022-10-28T05:40:14.572Z,4.40
2022-10-28T05:42:44.937Z,3.85
2022-10-28T05:45:12.602Z,4.65
2022-10-28T05:47:44.074Z,3.90
2022-10-28T05:50:11.689Z,4.13
2022-10-28T05:52:38.956Z,4.20
2022-10-28T05:55:06.635Z,4.55
2022-10-28T05:57:37.050Z,3.50
2022-10-28T06:00:04.896Z,3.75
2022-10-28T06:02:32.218Z,3.95
2022-10-28T06:04:59.441Z,2.70
2022-10-28T06:07:26.628Z,3.35
2022-10-28T06:09:53.911Z,2.95
2022-10-28T06:12:19.729Z,4.00
2022-10-28T06:14:46.988Z,3.30
2022-10-28T06:17:14.232Z,3.67
2022-10-28T06:19:41.442Z,2.88
2022-10-28T06:22:08.674Z,3.78
2022-10-28T06:24:36.000Z,3.78
2022-10-28T06:27:03.525Z,2.75
2022-10-28T06:29:30.733Z,3.83
2022-10-28T06:31:57.987Z,3.17
2022-10-28T06:34:25.241Z,3.90
2022-10-28T06:36:52.916Z,3.47
2022-10-28T06:39:20.142Z,3.10
2022-10-28T06:41:47.398Z,3.03
2022-10-28T06:44:14.590Z,3.28
2022-10-28T06:46:43.377Z,3.95
2022-10-28T06:49:10.661Z,3.90
2022-10-28T06:51:37.831Z,3.60
2022-10-28T06:54:05.065Z,4.40
2022-10-28T06:56:32.348Z,3.50
2022-10-28T06:58:59.671Z,3.53
2022-10-28T07:01:26.953Z,3.38
2022-10-28T07:03:54.205Z,3.78
2022-10-28T07:06:21.462Z,4.50
2022-10-28T07:08:48.677Z,3.45
2022-10-28T07:11:16.206Z,3.20
2022-10-28T07:13:45.436Z,4.00
2022-10-28T07:16:15.405Z,3.22
2022-10-28T07:18:42.727Z,4.80
2022-10-28T07:21:09.928Z,4.22
2022-10-28T07:23:37.086Z,3.88
2022-10-28T07:26:04.394Z,3.25
2022-10-28T07:28:31.696Z,4.20
2022-10-28T07:31:02.705Z,3.22
2022-10-28T07:33:30.060Z,3.90
2022-10-28T07:35:57.526Z,4.45
2022-10-28T07:38:24.707Z,3.95
2022-10-28T07:40:51.864Z,3.42
2022-10-28T07:43:19.053Z,4.15
2022-10-28T07:45:46.262Z,3.55
2022-10-28T07:48:13.509Z,3.70
2022-10-28T07:50:41.683Z,2.78
2022-10-28T07:53:09.009Z,3.00
2022-10-28T07:55:36.318Z,4.25
2022-10-28T07:58:03.550Z,3.58
2022-10-28T08:00:30.806Z,3.97
2022-10-28T08:02:58.028Z,4.07
2022-10-28T08:05:25.243Z,3.83
2022-10-28T08:07:52.618Z,2.65
2022-10-28T08:10:20.119Z,3.45
2022-10-28T08:12:47.356Z,3.17
2022-10-28T08:15:16.619Z,3.40
2022-10-28T08:17:43.784Z,3.78
2022-10-28T08:20:11.113Z,4.25
2022-10-28T08:22:38.270Z,4.05
2022-10-28T08:25:05.599Z,4.30
2022-10-28T08:27:32.798Z,3.33
2022-10-28T08:30:00.073Z,3.00
2022-10-28T08:32:27.264Z,3.22
2022-10-28T08:34:54.504Z,3.28
2022-10-28T08:37:21.720Z,3.00
2022-10-28T08:39:48.958Z,2.85
2022-10-28T08:42:37.984Z,3.38
2022-10-28T08:45:15.793Z,2.35
2022-10-28T08:47:52.756Z,2.95
2022-10-28T08:50:27.653Z,3.00
2022-10-28T08:52:57.296Z,2.30
2022-10-28T08:55:33.897Z,3.10
2022-10-28T08:58:15.703Z,3.35
2022-10-28T09:00:45.439Z,2.20
2022-10-28T09:03:12.648Z,3.10
2022-10-28T09:05:41.009Z,2.90
2022-10-28T09:08:14.879Z,2.33
2022-10-28T09:11:00.847Z,1.92
2022-10-28T09:13:40.134Z,2.60
2022-10-28T09:16:12.495Z,1.98
2022-10-28T09:18:52.353Z,1.60
2022-10-28T09:21:39.848Z,1.63
2022-10-28T09:24:16.213Z,1.52
2022-10-28T09:26:58.174Z,0.75
2022-10-28T09:29:51.803Z,0.97
2022-10-28T09:32:18.990Z,0.82
2022-10-28T09:34:51.956Z,0.80
2022-10-28T09:37:25.022Z,1.15
2022-10-28T09:39:55.503Z,1.10
2022-10-28T09:42:33.515Z,1.20
2022-10-28T09:45:03.691Z,1.30
2022-10-28T09:47:32.876Z,0.95
2022-10-28T09:50:02.087Z,0.98
2022-10-28T09:52:31.724Z,1.10
2022-10-28T09:55:00.074Z,1.25
2022-10-28T09:57:30.644Z,0.77
2022-10-28T09:59:58.217Z,0.88
2022-10-28T10:02:30.505Z,1.52
2022-10-28T10:04:58.543Z,0.90
2022-10-28T10:07:39.685Z,1.02
2022-10-28T10:10:11.743Z,1.23
2022-10-28T10:12:38.996Z,0.95
2022-10-28T10:15:06.799Z,1.08
2022-10-28T10:17:42.405Z,1.13
2022-10-28T10:20:11.157Z,1.30
2022-10-28T10:22:43.466Z,1.00
2022-10-28T10:25:19.967Z,1.63
2022-10-28T10:27:54.798Z,1.50
2022-10-28T10:30:27.600Z,1.85
2022-10-28T10:32:54.894Z,1.90
2022-10-28T10:35:27.114Z,2.25
2022-10-28T10:37:56.060Z,1.75
2022-10-28T10:40:27.114Z,1.65
2022-10-28T10:43:10.035Z,1.83
2022-10-28T10:45:40.761Z,3.10
2022-10-28T10:48:08.101Z,1.17
2022-10-28T10:50:37.850Z,1.10
2022-10-28T10:53:05.268Z,1.63
2022-10-28T10:55:34.653Z,1.25
2022-10-28T10:58:02.508Z,1.92
2022-10-28T11:00:32.631Z,1.88
2022-10-28T11:03:01.197Z,1.35
2022-10-28T11:05:35.632Z,1.52
2022-10-28T11:08:06.541Z,1.55
2022-10-28T11:10:37.276Z,1.30
2022-10-28T11:13:07.067Z,1.70
2022-10-28T11:15:34.347Z,1.85
2022-10-28T11:18:01.605Z,2.35
2022-10-28T11:20:31.817Z,1.25
2022-10-28T11:23:18.056Z,1.60
2022-10-28T11:25:47.539Z,1.10
2022-10-28T11:28:20.622Z,1.25
2022-10-28T11:33:53.060Z,1.10
2022-10-28T11:36:29.190Z,1.98
2022-10-28T11:39:02.343Z,1.42
2022-10-28T11:41:48.414Z,1.15
2022-10-28T11:44:24.733Z,1.65
2022-10-28T11:46:54.917Z,1.20
2022-10-28T11:49:31.340Z,1.60
2022-10-28T11:52:04.434Z,1.42
2022-10-28T11:54:50.535Z,1.10
2022-10-28T11:57:19.509Z,1.35
2022-10-28T11:59:58.598Z,2.22
2022-10-28T12:02:37.871Z,1.52
2022-10-28T12:05:11.242Z,1.45
2022-10-28T12:08:01.699Z,1.60
2022-10-28T12:10:47.796Z,1.60
2022-10-28T12:13:14.955Z,1.27
2022-10-28T12:16:03.972Z,1.17
2022-10-28T12:18:45.478Z,1.17
2022-10-28T12:21:17.211Z,1.05
2022-10-28T12:23:45.018Z,1.58
2022-10-28T12:26:14.562Z,1.55
2022-10-28T12:28:44.350Z,1.35
2022-10-28T12:31:34.010Z,1.70
2022-10-28T12:34:04.657Z,1.30
2022-10-28T12:36:43.695Z,1.52
2022-10-28T12:39:14.318Z,1.40
2022-10-28T12:41:48.416Z,1.85
2022-10-28T12:44:20.126Z,1.60
2022-10-28T12:49:21.331Z,2.97
2022-10-28T12:51:48.986Z,2.33
2022-10-28T12:54:26.571Z,2.00
2022-10-28T12:56:58.243Z,1.50
2022-10-28T12:59:30.374Z,1.77
2022-10-28T13:01:57.815Z,2.13
2022-10-28T13:04:25.141Z,1.52
2022-10-28T13:06:55.520Z,2.65
2022-10-28T13:09:41.559Z,1.70
2022-10-28T13:12:15.031Z,1.73
2022-10-28T13:14:48.377Z,1.60
2022-10-28T13:17:34.552Z,1.15
2022-10-28T13:20:14.079Z,1.80
2022-10-28T13:23:02.236Z,1.83
2022-10-28T13:25:29.499Z,1.35
2022-10-28T13:27:58.145Z,1.60
2022-10-28T13:30:26.281Z,1.05
2022-10-28T13:33:02.202Z,1.25
2022-10-28T13:35:31.010Z,1.52
2022-10-28T13:37:59.739Z,1.48
2022-10-28T13:40:33.820Z,2.35
2022-10-28T13:43:01.923Z,1.60
2022-10-28T13:45:51.434Z,1.52
2022-10-28T13:48:31.281Z,0.93
2022-10-28T13:51:10.735Z,1.40
2022-10-28T13:53:38.411Z,1.20
2022-10-28T13:56:31.969Z,1.45
2022-10-28T13:59:00.824Z,1.67
2022-10-28T14:01:56.416Z,1.42
2022-10-28T14:04:36.300Z,1.27
2022-10-28T14:07:10.018Z,1.10
2022-10-28T14:09:37.992Z,1.10
2022-10-28T14:12:14.248Z,1.00
2022-10-28T14:15:10.877Z,1.08
2022-10-28T14:17:39.879Z,1.00
2022-10-28T14:20:22.545Z,1.20
2022-10-28T14:22:51.232Z,1.23
2022-10-28T14:25:37.245Z,1.15
2022-10-28T14:28:05.239Z,1.20
2022-10-28T14:30:32.780Z,1.00
2022-10-28T14:33:03.482Z,1.27
2022-10-28T14:35:41.454Z,0.93
2022-10-28T14:38:12.150Z,0.80
2022-10-28T14:40:46.600Z,0.50
2022-10-28T14:43:19.387Z,1.25
2022-10-28T14:48:16.926Z,0.60
2022-10-28T14:50:48.829Z,0.90
2022-10-28T14:53:23.212Z,1.08
2022-10-28T14:55:53.225Z,0.60
2022-10-28T14:58:21.727Z,0.70
2022-10-28T15:01:15.704Z,0.70
2022-10-28T15:03:52.514Z,0.60
2022-10-28T15:06:24.408Z,0.93
2022-10-28T15:08:51.847Z,0.73
2022-10-28T15:11:19.263Z,0.63
2022-10-28T15:13:48.781Z,1.08
2022-10-28T15:16:23.255Z,1.05
2022-10-28T15:18:51.791Z,0.95
2022-10-28T15:21:20.137Z,0.88
2022-10-28T15:23:58.913Z,1.10
2022-10-28T15:26:26.135Z,1.15
2022-10-28T15:28:53.689Z,0.85
2022-10-28T15:31:20.873Z,1.02
2022-10-28T15:33:48.194Z,0.90
2022-10-28T15:36:33.581Z,0.75
2022-10-28T15:39:16.454Z,2.05
2022-10-28T15:41:49.464Z,1.20
2022-10-28T15:44:26.049Z,1.00
2022-10-28T15:46:53.565Z,0.93
2022-10-28T15:49:53.160Z,1.13
2022-10-28T15:52:21.768Z,0.80
2022-10-28T15:54:56.126Z,1.10
2022-10-28T15:57:24.586Z,1.73
2022-10-28T16:00:14.847Z,1.00
2022-10-28T16:02:43.121Z,1.05
2022-10-28T16:05:29.155Z,0.93
2022-10-28T16:07:56.932Z,0.90
2022-10-28T16:10:24.509Z,1.42
2022-10-28T16:12:51.790Z,1.00
2022-10-28T16:15:19.023Z,0.90
2022-10-28T16:17:46.289Z,1.88
2022-10-28T16:20:20.196Z,1.05
2022-10-28T16:22:48.399Z,1.17
2022-10-28T16:25:17.249Z,1.25
2022-10-28T16:27:44.506Z,0.73
2022-10-28T16:30:12.281Z,0.98
2022-10-28T16:32:41.450Z,1.17
2022-10-28T16:35:16.263Z,0.80
2022-10-28T16:37:45.279Z,1.20
2022-10-28T16:43:01.530Z,0.80
2022-10-28T16:45:29.002Z,0.90
2022-10-28T16:47:56.966Z,0.80
2022-10-28T16:50:24.618Z,0.98
2022-10-28T16:52:54.433Z,1.02
2022-10-28T16:55:21.822Z,0.80
2022-10-28T16:57:49.300Z,0.80
2022-10-28T17:00:16.724Z,1.38
2022-10-28T17:02:44.127Z,1.00
2022-10-28T17:05:19.783Z,1.08
2022-10-28T17:07:47.403Z,0.73
2022-10-28T17:10:15.170Z,0.70
2022-10-28T17:12:42.787Z,0.95
2022-10-28T17:15:10.830Z,1.60
2022-10-28T17:17:38.435Z,0.90
2022-10-28T17:20:07.369Z,1.05
2022-10-28T17:22:34.837Z,0.75
2022-10-28T17:25:02.246Z,0.90
2022-10-28T17:27:29.558Z,1.00
2022-10-28T17:29:56.943Z,1.00
2022-10-28T17:32:24.475Z,0.85
2022-10-28T17:34:51.842Z,1.48
2022-10-28T17:37:19.560Z,0.68
2022-10-28T17:39:47.077Z,0.75
2022-10-28T17:42:14.559Z,0.70
2022-10-28T17:44:41.956Z,0.90
2022-10-28T17:47:09.647Z,0.70
2022-10-28T17:49:37.402Z,1.00
2022-10-28T17:52:04.895Z,0.68
2022-10-28T17:54:32.383Z,0.80
2022-10-28T17:56:59.567Z,0.55
2022-10-28T17:59:27.436Z,0.80
2022-10-28T18:01:54.860Z,1.52
2022-10-28T18:04:28.486Z,0.80
2022-10-28T18:06:56.415Z,0.52
2022-10-28T18:09:23.949Z,1.63
2022-10-28T18:11:51.900Z,1.35
2022-10-28T18:14:20.277Z,0.60
2022-10-28T18:16:50.167Z,0.60
2022-10-28T18:19:17.910Z,0.90
2022-10-28T18:21:45.494Z,0.77
2022-10-28T18:24:13.105Z,0.80
2022-10-28T18:26:41.056Z,0.57
2022-10-28T18:29:10.131Z,0.75
2022-10-28T18:31:40.635Z,0.63
2022-10-28T18:34:08.243Z,0.80
2022-10-28T18:36:36.297Z,0.80
2022-10-28T18:39:05.120Z,0.82
2022-10-28T18:41:33.298Z,0.95
2022-10-28T18:44:01.656Z,0.80
2022-10-28T18:46:29.786Z,0.77
2022-10-28T18:48:57.657Z,0.90
2022-10-28T18:51:25.178Z,1.13
2022-10-28T18:53:53.094Z,1.00
2022-10-28T18:56:21.645Z,1.02
2022-10-28T18:58:51.424Z,0.90
2022-10-28T19:01:21.721Z,0.55
2022-10-28T19:03:52.830Z,1.30
2022-10-28T19:06:20.799Z,0.60
2022-10-28T19:08:55.515Z,0.85
2022-10-28T19:11:25.801Z,0.68
2022-10-28T19:13:53.180Z,0.95
2022-10-28T19:16:20.634Z,0.98
2022-10-28T19:18:49.249Z,0.60
2022-10-28T19:21:17.195Z,1.17
2022-10-28T19:23:44.640Z,0.80
2022-10-28T19:26:12.313Z,0.60
2022-10-28T19:28:40.213Z,0.90
2022-10-28T19:31:08.784Z,0.55
2022-10-28T19:33:38.456Z,0.77
2022-10-28T19:36:06.212Z,0.90
2022-10-28T19:38:34.521Z,0.75
2022-10-28T19:41:06.165Z,0.77
2022-10-28T19:43:33.635Z,0.70
2022-10-28T19:46:08.053Z,0.68
2022-10-28T19:48:35.516Z,0.85
2022-10-28T19:51:03.856Z,1.05
2022-10-28T19:53:31.372Z,0.70
2022-10-28T19:56:00.388Z,0.80
2022-10-28T19:58:28.681Z,1.23
2022-10-28T20:01:03.995Z,0.70
2022-10-28T20:03:34.422Z,0.73
2022-10-28T20:06:04.810Z,0.60
2022-10-28T20:08:34.069Z,0.60
2022-10-28T20:11:02.862Z,0.80
2022-10-28T20:13:30.566Z,0.70
2022-10-28T20:16:01.651Z,1.27
2022-10-28T20:18:31.325Z,1.20
2022-10-28T20:21:06.484Z,0.90
2022-10-28T20:23:35.880Z,1.02
2022-10-28T20:26:04.243Z,0.88
2022-10-28T20:28:32.232Z,1.23
2022-10-28T20:31:02.495Z,0.98
2022-10-28T20:33:30.767Z,1.38
2022-10-28T20:35:58.651Z,1.25
2022-10-28T20:38:26.630Z,1.00
2022-10-28T20:40:58.226Z,1.48
2022-10-28T20:43:27.129Z,2.03
2022-10-28T20:45:59.480Z,1.80
2022-10-28T20:48:28.119Z,1.63
2022-10-28T20:50:56.597Z,1.92
2022-10-28T20:53:25.754Z,1.38
2022-10-28T20:55:55.253Z,1.33
2022-10-28T20:58:24.063Z,1.50
2022-10-28T21:00:53.243Z,1.52
2022-10-28T21:03:20.868Z,1.63
2022-10-28T21:05:50.657Z,1.77
2022-10-28T21:08:18.185Z,1.63
2022-10-28T21:10:45.999Z,1.73
2022-10-28T21:13:13.262Z,1.35
2022-10-28T21:15:41.259Z,2.05
2022-10-28T21:18:09.150Z,2.35
2022-10-28T21:20:39.638Z,2.65
2022-10-28T21:23:07.507Z,3.47
2022-10-28T21:25:35.070Z,3.10
2022-10-28T21:28:02.615Z,3.08
2022-10-28T21:30:34.623Z,2.97
2022-10-28T21:33:05.658Z,2.55
2022-10-28T21:35:33.301Z,3.83
2022-10-28T21:38:00.676Z,2.20
2022-10-28T21:40:28.197Z,2.40
2022-10-28T21:43:00.492Z,1.80
2022-10-28T21:45:30.606Z,1.65
2022-10-28T21:47:58.205Z,2.20
2022-10-28T21:50:30.991Z,2.13
2022-10-28T21:52:58.528Z,1.60
2022-10-28T21:55:41.586Z,1.77
2022-10-28T21:58:13.671Z,1.48
2022-10-28T22:00:42.155Z,2.42
2022-10-28T22:03:14.638Z,1.80
2022-10-28T22:05:49.801Z,2.00
2022-10-28T22:08:18.004Z,2.03
2022-10-28T22:10:45.458Z,3.35
2022-10-28T22:13:13.033Z,2.60
2022-10-28T22:15:40.468Z,3.30
2022-10-28T22:18:07.967Z,3.00
2022-10-28T22:20:35.480Z,3.00
2022-10-28T22:23:03.158Z,3.08
2022-10-28T22:25:30.685Z,3.05
2022-10-28T22:27:58.179Z,3.58
2022-10-28T22:30:25.932Z,3.13
2022-10-28T22:32:53.798Z,2.50
2022-10-28T22:35:21.350Z,2.97
2022-10-28T22:37:48.675Z,2.13
2022-10-28T22:40:16.117Z,2.67
2022-10-28T22:42:43.747Z,2.03
2022-10-28T22:45:11.223Z,1.80
2022-10-28T22:47:38.618Z,2.03
2022-10-28T22:50:06.233Z,2.17
2022-10-28T22:52:34.030Z,1.80
2022-10-28T22:55:01.630Z,1.90
2022-10-28T22:57:29.168Z,2.10
2022-10-28T22:59:56.861Z,1.83
2022-10-28T23:02:24.577Z,2.55
2022-10-28T23:04:52.107Z,1.92
2022-10-28T23:07:19.459Z,2.17
2022-10-28T23:09:46.975Z,2.13
2022-10-28T23:12:14.473Z,1.73
2022-10-28T23:14:41.834Z,1.63
2022-10-28T23:17:09.262Z,2.13
2022-10-28T23:19:36.818Z,1.73
2022-10-28T23:22:04.166Z,1.73
2022-10-28T23:24:31.661Z,2.00
2022-10-28T23:26:59.041Z,1.77
2022-10-28T23:29:26.437Z,1.90
2022-10-28T23:31:53.961Z,1.77
2022-10-28T23:34:21.503Z,1.77
2022-10-28T23:36:54.086Z,1.55
2022-10-28T23:39:22.453Z,2.38
2022-10-28T23:41:56.775Z,1.80
2022-10-28T23:44:24.435Z,2.47
2022-10-28T23:46:51.785Z,2.03
2022-10-28T23:49:19.212Z,1.60
2022-10-28T23:51:47.143Z,2.20
2022-10-28T23:54:14.563Z,2.13
2022-10-28T23:56:42.053Z,1.60
2022-10-28T23:59:11.742Z,2.30
